| time (UTC) | temp C | wind direction | speed KPH | gust KPH | rain 1hr cm | rain 24hr cm | rain mn cm | humidity % | barometer mb |
| 20260508221542 | 23 | 285 | 14.5 | 20.9 | 0.00 | 0.00 | 0.00 | 22 | 1001.3 |
| 20260508220023 | 23 | 280 | 9.7 | 24.1 | 0.00 | 0.00 | 0.00 | 22 | 1001.4 |
| 20260508214520 | 22 | 269 | 3.2 | 11.3 | 0.00 | 0.00 | 0.00 | 23 | 1001.7 |
| 20260508213003 | 22 | 319 | 4.8 | 16.1 | 0.00 | 0.00 | 0.00 | 23 | 1001.9 |
| 20260508211601 | 22 | 285 | 9.7 | 27.4 | 0.00 | 0.00 | 0.00 | 23 | 1002.1 |
| 20260508210042 | 22 | 268 | 6.4 | 17.7 | 0.00 | 0.00 | 0.00 | 23 | 1002.4 |
| 20260508204542 | 23 | 290 | 6.4 | 20.9 | 0.00 | 0.00 | 0.00 | 22 | 1002.4 |
| 20260508203020 | 22 | 310 | 4.8 | 16.1 | 0.00 | 0.00 | 0.00 | 22 | 1002.8 |
| 20260508201523 | 22 | 309 | 9.7 | 27.4 | 0.00 | 0.00 | 0.00 | 22 | 1003.0 |
| 20260508200059 | 22 | 281 | 4.8 | 29.0 | 0.00 | 0.00 | 0.00 | 22 | 1003.2 |
| 20260508194623 | 23 | 283 | 20.9 | 40.2 | 0.00 | 0.00 | 0.00 | 20 | 1003.2 |
| 20260508193037 | 22 | 270 | 16.1 | 30.6 | 0.00 | 0.00 | 0.00 | 21 | 1003.5 |
| 20260508191536 | 22 | 267 | 17.7 | 27.4 | 0.00 | 0.00 | 0.00 | 20 | 1003.7 |
| 20260508190015 | 22 | 319 | 6.4 | 24.1 | 0.00 | 0.00 | 0.00 | 21 | 1003.9 |
| 20260508184512 | 22 | 280 | 14.5 | 32.2 | 0.00 | 0.00 | 0.00 | 21 | 1004.2 |
| 20260508183051 | 21 | 269 | 11.3 | 24.1 | 0.00 | 0.00 | 0.00 | 21 | 1004.4 |
| 20260508181615 | 21 | 259 | 8.0 | 32.2 | 0.00 | 0.00 | 0.00 | 22 | 1004.6 |
| 20260508180031 | 21 | 278 | 20.9 | 40.2 | 0.00 | 0.00 | 0.00 | 21 | 1004.7 |
| 20260508174530 | 21 | 300 | 8.0 | 20.9 | 0.00 | 0.00 | 0.00 | 21 | 1005.0 |
| 20260508173002 | 21 | 264 | 11.3 | 25.7 | 0.00 | 0.00 | 0.00 | 21 | 1005.6 |
| 20260508171557 | 21 | 307 | 16.1 | 27.4 | 0.00 | 0.00 | 0.00 | 22 | 1005.8 |
| 20260508170038 | 20 | 249 | 8.0 | 32.2 | 0.00 | 0.00 | 0.00 | 23 | 1006.1 |
| 20260508164534 | 20 | 244 | 9.7 | 19.3 | 0.00 | 0.00 | 0.00 | 24 | 1006.3 |
| 20260508163019 | 20 | 308 | 4.8 | 24.1 | 0.00 | 0.00 | 0.00 | 24 | 1006.6 |
| 20260508161521 | 18 | 260 | 16.1 | 25.7 | 0.00 | 0.00 | 0.00 | 25 | 1006.6 |
| 20260508160055 | 18 | 270 | 16.1 | 35.4 | 0.00 | 0.00 | 0.00 | 24 | 1006.8 |
| 20260508154557 | 18 | 259 | 17.7 | 29.0 | 0.00 | 0.00 | 0.00 | 25 | 1006.8 |
| 20260508153042 | 18 | 261 | 14.5 | 27.4 | 0.00 | 0.00 | 0.00 | 27 | 1007.2 |
| 20260508151531 | 17 | 221 | 17.7 | 29.0 | 0.00 | 0.00 | 0.00 | 28 | 1007.3 |
| 20260508150012 | 17 | 250 | 19.3 | 29.0 | 0.00 | 0.00 | 0.00 | 29 | 1007.6 |
| 20260508144507 | 16 | 220 | 16.1 | 30.6 | 0.00 | 0.00 | 0.00 | 31 | 1007.7 |
| 20260508143050 | 16 | 299 | 19.3 | 32.2 | 0.00 | 0.00 | 0.00 | 33 | 1007.9 |
| 20260508141548 | 15 | 250 | 14.5 | 29.0 | 0.00 | 0.00 | 0.00 | 33 | 1008.0 |
| 20260508140034 | 15 | 193 | 19.3 | 32.2 | 0.00 | 0.00 | 0.00 | 36 | 1008.0 |
| 20260508134529 | 14 | 231 | 16.1 | 27.4 | 0.00 | 0.00 | 0.00 | 37 | 1008.2 |
| 20260508133013 | 12 | 221 | 12.9 | 24.1 | 0.00 | 0.00 | 0.00 | 40 | 1008.3 |
| 20260508131511 | 12 | 186 | 14.5 | 22.5 | 0.00 | 0.00 | 0.00 | 40 | 1008.4 |
| 20260508130054 | 11 | 179 | 16.1 | 22.5 | 0.00 | 0.00 | 0.00 | 41 | 1008.5 |
| 20260508124553 | 10 | 192 | 11.3 | 17.7 | 0.00 | 0.00 | 0.00 | 47 | 1008.4 |
| 20260508123056 | 8 | 193 | 14.5 | 19.3 | 0.00 | 0.00 | 0.00 | 48 | 1008.4 |
| 20260508121554 | -17 | 0.0 | 0.0 | 0.00 | 0.00 | 0.00 | 1008.4 | ||
| 20260508120049 | -17 | 0.0 | 0.0 | 0.00 | 0.00 | 0.00 | 1008.4 | ||
| 20260508114541 | -17 | 0.0 | 0.0 | 0.00 | 0.00 | 0.00 | 1008.3 | ||
| 20260508113039 | -17 | 0.0 | 0.0 | 0.00 | 0.00 | 0.00 | 1008.2 | ||
| 20260508111533 | -17 | 0.0 | 0.0 | 0.00 | 0.00 | 0.00 | 1008.3 | ||
| 20260508110013 | 5 | 195 | 14.5 | 17.7 | 0.00 | 0.00 | 0.00 | 55 | 1008.4 |
| 20260508104511 | 5 | 203 | 14.5 | 17.7 | 0.00 | 0.00 | 0.00 | 54 | 1008.4 |
| 20260508103051 | 5 | 202 | 9.7 | 14.5 | 0.00 | 0.00 | 0.00 | 55 | 1008.4 |
| 20260508101549 | 5 | 203 | 9.7 | 12.9 | 0.00 | 0.00 | 0.00 | 54 | 1008.6 |
| 20260508100029 | 5 | 210 | 9.7 | 16.1 | 0.00 | 0.00 | 0.00 | 52 | 1008.6 |
| 20260508094528 | 6 | 183 | 9.7 | 16.1 | 0.00 | 0.00 | 0.00 | 49 | 1008.7 |
| 20260508093011 | 6 | 175 | 12.9 | 19.3 | 0.00 | 0.00 | 0.00 | 50 | 1008.7 |
| 20260508091507 | 6 | 140 | 9.7 | 14.5 | 0.00 | 0.00 | 0.00 | 51 | 1008.7 |
| 20260508090049 | 6 | 169 | 9.7 | 14.5 | 0.00 | 0.00 | 0.00 | 50 | 1008.7 |
| 20260508084548 | 6 | 173 | 9.7 | 14.5 | 0.00 | 0.00 | 0.00 | 50 | 1008.8 |
| 20260508083029 | 6 | 177 | 11.3 | 12.9 | 0.00 | 0.00 | 0.00 | 50 | 1008.8 |
| 20260508081533 | 6 | 169 | 9.7 | 12.9 | 0.00 | 0.00 | 0.00 | 48 | 1008.9 |
| 20260508080012 | 6 | 182 | 8.0 | 0.0 | 0.00 | 0.00 | 0.00 | 51 | 1009.0 |
| 20260508074507 | 5 | 181 | 6.4 | 9.7 | 0.00 | 0.00 | 0.00 | 54 | 1009.2 |
| 20260508073105 | 5 | 186 | 3.2 | 6.4 | 0.00 | 0.00 | 0.00 | 54 | 1009.3 |
| 20260508071544 | 6 | 191 | 3.2 | 6.4 | 0.00 | 0.00 | 0.00 | 50 | 1009.3 |
| 20260508070046 | 6 | 214 | 1.6 | 4.8 | 0.00 | 0.00 | 0.00 | 49 | 1009.4 |
| 20260508064524 | 6 | 215 | 1.6 | 3.2 | 0.00 | 0.00 | 0.00 | 52 | 1009.4 |
| 20260508063020 | 6 | 155 | 1.6 | 4.8 | 0.00 | 0.00 | 0.00 | 48 | 1009.5 |
| 20260508061503 | 7 | 170 | 1.6 | 3.2 | 0.00 | 0.00 | 0.00 | 45 | 1009.6 |
| 20260508060107 | 8 | 153 | 1.6 | 3.2 | 0.00 | 0.00 | 0.00 | 43 | 1009.6 |
| 20260508054600 | 8 | 171 | 1.6 | 3.2 | 0.00 | 0.00 | 0.00 | 42 | 1009.7 |
| 20260508053104 | 10 | 134 | 1.6 | 4.8 | 0.00 | 0.00 | 0.00 | 37 | 1009.8 |
| 20260508051600 | 10 | 129 | 3.2 | 4.8 | 0.00 | 0.00 | 0.00 | 36 | 1009.9 |
| 20260508050057 | 10 | 131 | 3.2 | 4.8 | 0.00 | 0.00 | 0.00 | 35 | 1009.9 |
| 20260508044606 | 10 | 117 | 0.0 | 0.0 | 0.00 | 0.00 | 0.00 | 35 | 1010.0 |
| 20260508041537 | 10 | 127 | 0.0 | 0.0 | 0.00 | 0.00 | 0.00 | 36 | 1010.0 |
| 20260508040037 | 10 | 127 | 0.0 | 0.0 | 0.00 | 0.00 | 0.00 | 35 | 1010.1 |
| 20260508034519 | 10 | 128 | 0.0 | 0.0 | 0.00 | 0.00 | 0.00 | 36 | 1010.0 |
| 20260508033021 | 9 | 133 | 0.0 | 1.6 | 0.00 | 0.00 | 0.00 | 38 | 1010.1 |
| 20260508031505 | 10 | 131 | 0.0 | 3.2 | 0.00 | 0.00 | 0.00 | 35 | 1009.9 |
| 20260508030002 | 11 | 326 | 0.0 | 1.6 | 0.00 | 0.00 | 0.00 | 33 | 1009.9 |
| 20260508024601 | 11 | 326 | 0.0 | 0.0 | 0.00 | 0.00 | 0.00 | 33 | 1009.8 |
| 20260508023057 | 11 | 326 | 0.0 | 0.0 | 0.00 | 0.00 | 0.00 | 31 | 1009.7 |
| 20260508021558 | 12 | 326 | 0.0 | 0.0 | 0.00 | 0.00 | 0.00 | 30 | 1009.6 |
| 20260508020056 | 12 | 326 | 0.0 | 0.0 | 0.00 | 0.00 | 0.00 | 30 | 1009.4 |
| 20260508014556 | 13 | 345 | 1.6 | 4.8 | 0.00 | 0.00 | 0.00 | 29 | 1009.2 |
| 20260508013056 | 13 | 322 | 3.2 | 4.8 | 0.00 | 0.00 | 0.00 | 29 | 1009.1 |
| 20260508011543 | 14 | 329 | 3.2 | 6.4 | 0.00 | 0.00 | 0.00 | 28 | 1009.0 |
| 20260508010039 | 15 | 325 | 0.0 | 6.4 | 0.00 | 0.00 | 0.00 | 27 | 1008.8 |
| 20260508004525 | 16 | 321 | 1.6 | 8.0 | 0.00 | 0.00 | 0.00 | 27 | 1008.8 |
| 20260508003019 | 16 | 290 | 1.6 | 12.9 | 0.00 | 0.00 | 0.00 | 26 | 1008.8 |
| 20260508001501 | 17 | 329 | 4.8 | 16.1 | 0.00 | 0.00 | 0.00 | 24 | 1008.9 |
| 20260508000100 | 17 | 315 | 6.4 | 16.1 | 0.00 | 0.00 | 0.00 | 24 | 1008.9 |
| 20260508000006 | 17 | 336 | 4.8 | 14.5 | 0.00 | 0.00 | 0.00 | 24 | 1008.9 |
| 20260507234549 | 17 | 269 | 4.8 | 14.5 | 0.00 | 0.00 | 0.00 | 24 | 1008.9 |
| 20260507233042 | 17 | 294 | 4.8 | 14.5 | 0.00 | 0.00 | 0.00 | 24 | 1009.1 |
| 20260507231533 | 17 | 300 | 4.8 | 16.1 | 0.00 | 0.00 | 0.00 | 24 | 1009.1 |
| 20260507230020 | 17 | 292 | 6.4 | 11.3 | 0.00 | 0.00 | 0.00 | 23 | 1009.1 |
| 20260507224603 | 16 | 275 | 6.4 | 17.7 | 0.00 | 0.00 | 0.00 | 24 | 1009.3 |
| 20260507223110 | 17 | 282 | 6.4 | 19.3 | 0.00 | 0.00 | 0.00 | 24 | 1009.4 |